sensor_id;sensor_type;location;lat;lon;timestamp;P1;durP1;ratioP1;P2;durP2;ratioP2
19329;SDS011;9799;48.214;16.388;2023-03-14T00:00:17;6.40;;;5.23;;
19329;SDS011;9799;48.214;16.388;2023-03-14T00:03:40;9.30;;;5.03;;
19329;SDS011;9799;48.214;16.388;2023-03-14T00:07:01;6.40;;;4.50;;
19329;SDS011;9799;48.214;16.388;2023-03-14T00:10:22;6.00;;;4.43;;
19329;SDS011;9799;48.214;16.388;2023-03-14T00:13:46;6.50;;;5.00;;
19329;SDS011;9799;48.214;16.388;2023-03-14T00:17:08;5.80;;;4.70;;
19329;SDS011;9799;48.214;16.388;2023-03-14T00:20:30;5.30;;;3.97;;
19329;SDS011;9799;48.214;16.388;2023-03-14T00:23:51;7.53;;;4.17;;
19329;SDS011;9799;48.214;16.388;2023-03-14T00:27:13;8.03;;;4.77;;
19329;SDS011;9799;48.214;16.388;2023-03-14T00:30:36;8.10;;;5.10;;
19329;SDS011;9799;48.214;16.388;2023-03-14T00:33:58;7.83;;;5.07;;
19329;SDS011;9799;48.214;16.388;2023-03-14T00:37:21;8.23;;;4.57;;
19329;SDS011;9799;48.214;16.388;2023-03-14T00:40:42;6.27;;;5.00;;
19329;SDS011;9799;48.214;16.388;2023-03-14T00:44:03;8.30;;;5.10;;
19329;SDS011;9799;48.214;16.388;2023-03-14T00:47:24;6.53;;;4.87;;
19329;SDS011;9799;48.214;16.388;2023-03-14T00:50:46;8.00;;;4.73;;
19329;SDS011;9799;48.214;16.388;2023-03-14T00:54:09;8.13;;;4.83;;
19329;SDS011;9799;48.214;16.388;2023-03-14T00:57:30;6.30;;;4.60;;
19329;SDS011;9799;48.214;16.388;2023-03-14T01:00:51;5.90;;;4.37;;
19329;SDS011;9799;48.214;16.388;2023-03-14T01:04:12;5.07;;;3.80;;
19329;SDS011;9799;48.214;16.388;2023-03-14T01:07:34;7.07;;;4.17;;
19329;SDS011;9799;48.214;16.388;2023-03-14T01:10:56;10.70;;;4.83;;
19329;SDS011;9799;48.214;16.388;2023-03-14T01:14:17;6.30;;;4.43;;
19329;SDS011;9799;48.214;16.388;2023-03-14T01:17:39;4.77;;;4.17;;
19329;SDS011;9799;48.214;16.388;2023-03-14T01:21:00;6.93;;;4.20;;
19329;SDS011;9799;48.214;16.388;2023-03-14T01:24:21;4.80;;;4.13;;
19329;SDS011;9799;48.214;16.388;2023-03-14T01:27:44;6.00;;;3.70;;
19329;SDS011;9799;48.214;16.388;2023-03-14T01:31:06;6.83;;;3.90;;
19329;SDS011;9799;48.214;16.388;2023-03-14T01:34:28;4.50;;;3.40;;
19329;SDS011;9799;48.214;16.388;2023-03-14T01:37:49;8.90;;;4.50;;
19329;SDS011;9799;48.214;16.388;2023-03-14T01:41:12;6.87;;;4.57;;
19329;SDS011;9799;48.214;16.388;2023-03-14T01:44:49;6.57;;;3.90;;
19329;SDS011;9799;48.214;16.388;2023-03-14T01:48:11;6.40;;;4.37;;
19329;SDS011;9799;48.214;16.388;2023-03-14T01:51:34;8.17;;;4.83;;
19329;SDS011;9799;48.214;16.388;2023-03-14T01:54:59;10.00;;;4.30;;
19329;SDS011;9799;48.214;16.388;2023-03-14T01:58:24;8.23;;;4.67;;
19329;SDS011;9799;48.214;16.388;2023-03-14T02:01:49;15.87;;;5.07;;
19329;SDS011;9799;48.214;16.388;2023-03-14T02:05:12;11.63;;;5.23;;
19329;SDS011;9799;48.214;16.388;2023-03-14T02:08:36;6.20;;;5.10;;
19329;SDS011;9799;48.214;16.388;2023-03-14T02:12:00;7.90;;;5.50;;
19329;SDS011;9799;48.214;16.388;2023-03-14T02:15:21;7.67;;;5.23;;
19329;SDS011;9799;48.214;16.388;2023-03-14T02:18:44;10.50;;;5.70;;
19329;SDS011;9799;48.214;16.388;2023-03-14T02:22:06;7.17;;;4.70;;
19329;SDS011;9799;48.214;16.388;2023-03-14T02:25:33;8.57;;;5.60;;
19329;SDS011;9799;48.214;16.388;2023-03-14T02:29:04;6.57;;;5.07;;
19329;SDS011;9799;48.214;16.388;2023-03-14T02:32:26;10.63;;;5.40;;
19329;SDS011;9799;48.214;16.388;2023-03-14T02:35:51;9.07;;;4.40;;
19329;SDS011;9799;48.214;16.388;2023-03-14T02:39:19;8.43;;;5.37;;
19329;SDS011;9799;48.214;16.388;2023-03-14T02:42:43;7.27;;;5.33;;
19329;SDS011;9799;48.214;16.388;2023-03-14T02:46:07;8.83;;;5.77;;
19329;SDS011;9799;48.214;16.388;2023-03-14T02:49:32;9.47;;;5.37;;
19329;SDS011;9799;48.214;16.388;2023-03-14T02:52:54;11.63;;;5.53;;
19329;SDS011;9799;48.214;16.388;2023-03-14T02:56:15;7.17;;;5.43;;
19329;SDS011;9799;48.214;16.388;2023-03-14T02:59:36;7.10;;;5.10;;
19329;SDS011;9799;48.214;16.388;2023-03-14T03:02:59;10.43;;;5.57;;
19329;SDS011;9799;48.214;16.388;2023-03-14T03:06:20;9.37;;;5.33;;
19329;SDS011;9799;48.214;16.388;2023-03-14T03:09:42;6.37;;;4.80;;
19329;SDS011;9799;48.214;16.388;2023-03-14T03:13:03;8.37;;;5.27;;
19329;SDS011;9799;48.214;16.388;2023-03-14T03:16:24;7.77;;;5.30;;
19329;SDS011;9799;48.214;16.388;2023-03-14T03:19:47;6.70;;;4.63;;
19329;SDS011;9799;48.214;16.388;2023-03-14T03:23:08;7.23;;;4.53;;
19329;SDS011;9799;48.214;16.388;2023-03-14T03:26:29;6.30;;;4.57;;
19329;SDS011;9799;48.214;16.388;2023-03-14T03:29:51;5.60;;;5.00;;
19329;SDS011;9799;48.214;16.388;2023-03-14T03:33:12;5.63;;;4.30;;
19329;SDS011;9799;48.214;16.388;2023-03-14T03:36:35;8.17;;;5.33;;
19329;SDS011;9799;48.214;16.388;2023-03-14T03:39:56;7.13;;;4.97;;
19329;SDS011;9799;48.214;16.388;2023-03-14T03:43:17;6.60;;;4.60;;
19329;SDS011;9799;48.214;16.388;2023-03-14T03:46:38;6.50;;;5.07;;
19329;SDS011;9799;48.214;16.388;2023-03-14T03:49:59;8.77;;;5.30;;
19329;SDS011;9799;48.214;16.388;2023-03-14T03:53:24;10.13;;;5.97;;
19329;SDS011;9799;48.214;16.388;2023-03-14T03:56:45;10.07;;;5.90;;
19329;SDS011;9799;48.214;16.388;2023-03-14T04:00:07;6.47;;;5.30;;
19329;SDS011;9799;48.214;16.388;2023-03-14T04:03:31;8.97;;;5.90;;
19329;SDS011;9799;48.214;16.388;2023-03-14T04:06:53;9.13;;;5.77;;
19329;SDS011;9799;48.214;16.388;2023-03-14T04:10:15;8.57;;;5.60;;
19329;SDS011;9799;48.214;16.388;2023-03-14T04:13:37;8.87;;;6.03;;
19329;SDS011;9799;48.214;16.388;2023-03-14T04:16:58;7.80;;;5.27;;
19329;SDS011;9799;48.214;16.388;2023-03-14T04:20:19;7.27;;;5.93;;
19329;SDS011;9799;48.214;16.388;2023-03-14T04:23:40;6.97;;;6.10;;
19329;SDS011;9799;48.214;16.388;2023-03-14T04:27:03;6.90;;;6.10;;
19329;SDS011;9799;48.214;16.388;2023-03-14T04:30:24;11.20;;;5.90;;
19329;SDS011;9799;48.214;16.388;2023-03-14T04:33:45;7.97;;;6.53;;
19329;SDS011;9799;48.214;16.388;2023-03-14T04:37:07;8.07;;;6.17;;
19329;SDS011;9799;48.214;16.388;2023-03-14T04:40:28;9.23;;;6.93;;
19329;SDS011;9799;48.214;16.388;2023-03-14T04:43:51;9.57;;;6.97;;
19329;SDS011;9799;48.214;16.388;2023-03-14T04:47:12;7.93;;;6.40;;
19329;SDS011;9799;48.214;16.388;2023-03-14T04:50:33;11.90;;;7.10;;
19329;SDS011;9799;48.214;16.388;2023-03-14T04:53:54;14.33;;;7.03;;
19329;SDS011;9799;48.214;16.388;2023-03-14T04:57:16;9.73;;;6.73;;
19329;SDS011;9799;48.214;16.388;2023-03-14T05:00:38;10.00;;;7.07;;
19329;SDS011;9799;48.214;16.388;2023-03-14T05:04:00;16.17;;;7.17;;
19329;SDS011;9799;48.214;16.388;2023-03-14T05:07:21;10.30;;;7.43;;
19329;SDS011;9799;48.214;16.388;2023-03-14T05:10:42;12.27;;;7.00;;
19329;SDS011;9799;48.214;16.388;2023-03-14T05:14:03;7.13;;;6.43;;
19329;SDS011;9799;48.214;16.388;2023-03-14T05:17:26;10.13;;;7.47;;
19329;SDS011;9799;48.214;16.388;2023-03-14T05:20:50;10.87;;;7.10;;
19329;SDS011;9799;48.214;16.388;2023-03-14T05:24:11;10.10;;;7.60;;
19329;SDS011;9799;48.214;16.388;2023-03-14T05:27:32;11.30;;;7.37;;
19329;SDS011;9799;48.214;16.388;2023-03-14T05:30:54;14.73;;;6.97;;
19329;SDS011;9799;48.214;16.388;2023-03-14T05:34:16;7.67;;;5.67;;
19329;SDS011;9799;48.214;16.388;2023-03-14T05:37:38;7.53;;;5.87;;
19329;SDS011;9799;48.214;16.388;2023-03-14T05:40:59;5.97;;;5.30;;
19329;SDS011;9799;48.214;16.388;2023-03-14T05:44:20;13.63;;;6.43;;
19329;SDS011;9799;48.214;16.388;2023-03-14T05:47:42;7.10;;;5.30;;
19329;SDS011;9799;48.214;16.388;2023-03-14T05:51:05;6.83;;;5.43;;
19329;SDS011;9799;48.214;16.388;2023-03-14T05:54:26;11.47;;;5.40;;
19329;SDS011;9799;48.214;16.388;2023-03-14T05:57:47;9.43;;;6.13;;
19329;SDS011;9799;48.214;16.388;2023-03-14T06:01:09;9.03;;;5.50;;
19329;SDS011;9799;48.214;16.388;2023-03-14T06:04:30;7.57;;;5.70;;
19329;SDS011;9799;48.214;16.388;2023-03-14T06:07:52;9.17;;;6.40;;
19329;SDS011;9799;48.214;16.388;2023-03-14T06:11:14;13.53;;;6.57;;
19329;SDS011;9799;48.214;16.388;2023-03-14T06:14:35;10.97;;;6.50;;
19329;SDS011;9799;48.214;16.388;2023-03-14T06:17:56;9.00;;;6.17;;
19329;SDS011;9799;48.214;16.388;2023-03-14T06:21:17;6.73;;;5.47;;
19329;SDS011;9799;48.214;16.388;2023-03-14T06:24:41;6.90;;;5.40;;
19329;SDS011;9799;48.214;16.388;2023-03-14T06:28:02;9.47;;;6.40;;
19329;SDS011;9799;48.214;16.388;2023-03-14T06:31:23;12.37;;;7.07;;
19329;SDS011;9799;48.214;16.388;2023-03-14T06:34:44;12.10;;;6.73;;
19329;SDS011;9799;48.214;16.388;2023-03-14T06:38:05;10.47;;;7.27;;
19329;SDS011;9799;48.214;16.388;2023-03-14T06:41:28;6.73;;;5.77;;
19329;SDS011;9799;48.214;16.388;2023-03-14T06:44:49;10.67;;;6.50;;
19329;SDS011;9799;48.214;16.388;2023-03-14T06:48:10;6.33;;;5.50;;
19329;SDS011;9799;48.214;16.388;2023-03-14T06:51:32;10.23;;;6.77;;
19329;SDS011;9799;48.214;16.388;2023-03-14T06:54:53;8.70;;;6.50;;
19329;SDS011;9799;48.214;16.388;2023-03-14T06:58:15;7.10;;;6.40;;
19329;SDS011;9799;48.214;16.388;2023-03-14T07:01:36;10.53;;;6.27;;
19329;SDS011;9799;48.214;16.388;2023-03-14T07:04:58;11.47;;;6.37;;
19329;SDS011;9799;48.214;16.388;2023-03-14T07:08:19;11.90;;;6.67;;
19329;SDS011;9799;48.214;16.388;2023-03-14T07:11:41;11.50;;;6.50;;
19329;SDS011;9799;48.214;16.388;2023-03-14T07:15:03;10.00;;;6.30;;
19329;SDS011;9799;48.214;16.388;2023-03-14T07:18:25;10.07;;;6.13;;
19329;SDS011;9799;48.214;16.388;2023-03-14T07:21:46;12.93;;;5.97;;
19329;SDS011;9799;48.214;16.388;2023-03-14T07:25:08;8.53;;;6.70;;
19329;SDS011;9799;48.214;16.388;2023-03-14T07:28:31;14.63;;;6.90;;
19329;SDS011;9799;48.214;16.388;2023-03-14T07:31:54;12.20;;;6.13;;
19329;SDS011;9799;48.214;16.388;2023-03-14T07:35:15;10.63;;;5.70;;
19329;SDS011;9799;48.214;16.388;2023-03-14T07:38:36;13.80;;;6.80;;
19329;SDS011;9799;48.214;16.388;2023-03-14T07:41:57;8.73;;;6.13;;
19329;SDS011;9799;48.214;16.388;2023-03-14T07:45:18;16.33;;;6.20;;
19329;SDS011;9799;48.214;16.388;2023-03-14T07:48:41;13.10;;;7.17;;
19329;SDS011;9799;48.214;16.388;2023-03-14T07:52:02;12.27;;;6.67;;
19329;SDS011;9799;48.214;16.388;2023-03-14T07:55:24;8.53;;;7.27;;
19329;SDS011;9799;48.214;16.388;2023-03-14T07:58:45;7.97;;;5.67;;
19329;SDS011;9799;48.214;16.388;2023-03-14T08:02:07;5.87;;;5.00;;
19329;SDS011;9799;48.214;16.388;2023-03-14T08:05:35;9.30;;;5.50;;
19329;SDS011;9799;48.214;16.388;2023-03-14T08:08:56;6.33;;;4.67;;
19329;SDS011;9799;48.214;16.388;2023-03-14T08:12:18;7.57;;;5.50;;
19329;SDS011;9799;48.214;16.388;2023-03-14T08:15:39;8.07;;;6.03;;
19329;SDS011;9799;48.214;16.388;2023-03-14T08:19:00;5.90;;;5.00;;
19329;SDS011;9799;48.214;16.388;2023-03-14T08:22:22;9.40;;;4.90;;
19329;SDS011;9799;48.214;16.388;2023-03-14T08:25:44;16.57;;;5.70;;
19329;SDS011;9799;48.214;16.388;2023-03-14T08:29:05;7.77;;;5.73;;
19329;SDS011;9799;48.214;16.388;2023-03-14T08:32:27;8.60;;;5.63;;
19329;SDS011;9799;48.214;16.388;2023-03-14T08:35:50;7.13;;;4.70;;
19329;SDS011;9799;48.214;16.388;2023-03-14T08:39:13;9.10;;;5.80;;
19329;SDS011;9799;48.214;16.388;2023-03-14T08:42:34;5.43;;;4.67;;
19329;SDS011;9799;48.214;16.388;2023-03-14T08:45:57;5.47;;;4.20;;
19329;SDS011;9799;48.214;16.388;2023-03-14T08:49:19;8.20;;;4.83;;
19329;SDS011;9799;48.214;16.388;2023-03-14T08:52:40;5.57;;;4.87;;
19329;SDS011;9799;48.214;16.388;2023-03-14T08:56:03;6.67;;;5.23;;
19329;SDS011;9799;48.214;16.388;2023-03-14T08:59:25;7.17;;;6.17;;
19329;SDS011;9799;48.214;16.388;2023-03-14T09:02:46;12.13;;;5.87;;
19329;SDS011;9799;48.214;16.388;2023-03-14T09:06:08;8.27;;;5.73;;
19329;SDS011;9799;48.214;16.388;2023-03-14T09:09:30;12.40;;;5.80;;
19329;SDS011;9799;48.214;16.388;2023-03-14T09:12:53;10.13;;;6.07;;
19329;SDS011;9799;48.214;16.388;2023-03-14T09:16:14;8.03;;;5.20;;
19329;SDS011;9799;48.214;16.388;2023-03-14T09:19:35;8.33;;;5.20;;
19329;SDS011;9799;48.214;16.388;2023-03-14T09:22:57;9.53;;;5.03;;
19329;SDS011;9799;48.214;16.388;2023-03-14T09:26:18;7.27;;;5.63;;
19329;SDS011;9799;48.214;16.388;2023-03-14T09:29:40;10.63;;;6.27;;
19329;SDS011;9799;48.214;16.388;2023-03-14T09:33:02;10.43;;;7.37;;
19329;SDS011;9799;48.214;16.388;2023-03-14T09:36:23;11.67;;;6.60;;
19329;SDS011;9799;48.214;16.388;2023-03-14T09:39:44;12.67;;;7.90;;
19329;SDS011;9799;48.214;16.388;2023-03-14T09:43:08;12.60;;;6.00;;
19329;SDS011;9799;48.214;16.388;2023-03-14T09:46:34;13.20;;;6.27;;
19329;SDS011;9799;48.214;16.388;2023-03-14T09:49:57;11.03;;;5.90;;
19329;SDS011;9799;48.214;16.388;2023-03-14T09:53:21;12.37;;;6.50;;
19329;SDS011;9799;48.214;16.388;2023-03-14T09:56:47;11.10;;;6.87;;
19329;SDS011;9799;48.214;16.388;2023-03-14T10:00:12;9.67;;;6.83;;
19329;SDS011;9799;48.214;16.388;2023-03-14T10:03:37;10.50;;;6.67;;
19329;SDS011;9799;48.214;16.388;2023-03-14T10:06:59;13.10;;;7.10;;
19329;SDS011;9799;48.214;16.388;2023-03-14T10:10:21;8.10;;;7.30;;
19329;SDS011;9799;48.214;16.388;2023-03-14T10:13:48;17.13;;;7.70;;
19329;SDS011;9799;48.214;16.388;2023-03-14T10:17:11;9.70;;;6.77;;
19329;SDS011;9799;48.214;16.388;2023-03-14T10:20:37;15.23;;;6.83;;
19329;SDS011;9799;48.214;16.388;2023-03-14T10:24:15;11.17;;;7.77;;
19329;SDS011;9799;48.214;16.388;2023-03-14T10:27:41;13.47;;;7.70;;
19329;SDS011;9799;48.214;16.388;2023-03-14T10:31:02;14.33;;;7.20;;
19329;SDS011;9799;48.214;16.388;2023-03-14T10:34:24;15.63;;;7.40;;
19329;SDS011;9799;48.214;16.388;2023-03-14T10:37:50;20.67;;;8.47;;
19329;SDS011;9799;48.214;16.388;2023-03-14T10:41:15;7.67;;;6.13;;
19329;SDS011;9799;48.214;16.388;2023-03-14T10:44:38;4.47;;;3.20;;
19329;SDS011;9799;48.214;16.388;2023-03-14T10:48:05;3.83;;;1.83;;
19329;SDS011;9799;48.214;16.388;2023-03-14T10:51:38;3.53;;;1.20;;
19329;SDS011;9799;48.214;16.388;2023-03-14T10:55:02;1.50;;;0.80;;
19329;SDS011;9799;48.214;16.388;2023-03-14T10:58:30;1.80;;;1.00;;
19329;SDS011;9799;48.214;16.388;2023-03-14T11:01:55;1.33;;;1.00;;
19329;SDS011;9799;48.214;16.388;2023-03-14T11:05:25;2.60;;;0.90;;
19329;SDS011;9799;48.214;16.388;2023-03-14T11:08:51;2.57;;;1.20;;
19329;SDS011;9799;48.214;16.388;2023-03-14T11:12:24;0.73;;;0.73;;
19329;SDS011;9799;48.214;16.388;2023-03-14T11:15:58;1.93;;;0.97;;
19329;SDS011;9799;48.214;16.388;2023-03-14T11:23:12;1.43;;;1.10;;
19329;SDS011;9799;48.214;16.388;2023-03-14T11:26:37;1.73;;;1.00;;
19329;SDS011;9799;48.214;16.388;2023-03-14T11:30:15;6.00;;;4.00;;
19329;SDS011;9799;48.214;16.388;2023-03-14T11:33:43;2.70;;;1.97;;
19329;SDS011;9799;48.214;16.388;2023-03-14T11:37:11;1.17;;;0.87;;
19329;SDS011;9799;48.214;16.388;2023-03-14T11:40:39;1.80;;;1.10;;
19329;SDS011;9799;48.214;16.388;2023-03-14T11:44:03;3.87;;;2.37;;
19329;SDS011;9799;48.214;16.388;2023-03-14T11:47:32;1.93;;;1.40;;
19329;SDS011;9799;48.214;16.388;2023-03-14T11:50:59;0.70;;;0.67;;
19329;SDS011;9799;48.214;16.388;2023-03-14T11:54:27;1.10;;;0.70;;
19329;SDS011;9799;48.214;16.388;2023-03-14T11:57:55;1.53;;;0.87;;
19329;SDS011;9799;48.214;16.388;2023-03-14T12:01:21;0.93;;;0.70;;
19329;SDS011;9799;48.214;16.388;2023-03-14T12:04:57;1.80;;;0.77;;
19329;SDS011;9799;48.214;16.388;2023-03-14T12:08:45;1.27;;;0.70;;
19329;SDS011;9799;48.214;16.388;2023-03-14T12:12:10;2.33;;;0.70;;
19329;SDS011;9799;48.214;16.388;2023-03-14T12:15:36;1.63;;;1.00;;
19329;SDS011;9799;48.214;16.388;2023-03-14T12:19:23;1.33;;;0.93;;
19329;SDS011;9799;48.214;16.388;2023-03-14T12:23:01;4.97;;;0.90;;
19329;SDS011;9799;48.214;16.388;2023-03-14T12:26:25;2.47;;;0.93;;
19329;SDS011;9799;48.214;16.388;2023-03-14T12:29:57;2.20;;;0.70;;
19329;SDS011;9799;48.214;16.388;2023-03-14T12:37:05;1.73;;;1.00;;
19329;SDS011;9799;48.214;16.388;2023-03-14T12:40:37;1.23;;;0.80;;
19329;SDS011;9799;48.214;16.388;2023-03-14T12:48:10;2.73;;;1.57;;
19329;SDS011;9799;48.214;16.388;2023-03-14T12:51:39;1.93;;;1.73;;
19329;SDS011;9799;48.214;16.388;2023-03-14T12:55:04;2.03;;;1.03;;
19329;SDS011;9799;48.214;16.388;2023-03-14T12:58:33;0.60;;;0.60;;
19329;SDS011;9799;48.214;16.388;2023-03-14T13:02:10;1.77;;;1.00;;
19329;SDS011;9799;48.214;16.388;2023-03-14T13:05:51;5.47;;;1.20;;
19329;SDS011;9799;48.214;16.388;2023-03-14T13:13:14;1.10;;;0.80;;
19329;SDS011;9799;48.214;16.388;2023-03-14T13:16:40;2.57;;;1.60;;
19329;SDS011;9799;48.214;16.388;2023-03-14T13:20:05;3.00;;;1.30;;
19329;SDS011;9799;48.214;16.388;2023-03-14T13:23:34;2.67;;;1.07;;
19329;SDS011;9799;48.214;16.388;2023-03-14T13:26:57;6.30;;;1.17;;
19329;SDS011;9799;48.214;16.388;2023-03-14T13:30:20;1.00;;;0.90;;
19329;SDS011;9799;48.214;16.388;2023-03-14T13:33:44;1.33;;;0.97;;
19329;SDS011;9799;48.214;16.388;2023-03-14T13:37:13;0.73;;;0.70;;
19329;SDS011;9799;48.214;16.388;2023-03-14T13:40:36;3.87;;;1.00;;
19329;SDS011;9799;48.214;16.388;2023-03-14T13:43:58;3.07;;;1.63;;
19329;SDS011;9799;48.214;16.388;2023-03-14T13:47:23;1.50;;;1.20;;
19329;SDS011;9799;48.214;16.388;2023-03-14T13:50:50;1.40;;;1.03;;
19329;SDS011;9799;48.214;16.388;2023-03-14T13:54:13;0.83;;;0.80;;
19329;SDS011;9799;48.214;16.388;2023-03-14T13:57:43;0.77;;;0.77;;
19329;SDS011;9799;48.214;16.388;2023-03-14T14:01:09;1.23;;;0.80;;
19329;SDS011;9799;48.214;16.388;2023-03-14T14:04:35;0.97;;;0.87;;
19329;SDS011;9799;48.214;16.388;2023-03-14T14:07:58;1.50;;;1.00;;
19329;SDS011;9799;48.214;16.388;2023-03-14T14:11:27;1.20;;;0.80;;
19329;SDS011;9799;48.214;16.388;2023-03-14T14:14:57;0.60;;;0.60;;
19329;SDS011;9799;48.214;16.388;2023-03-14T14:18:23;0.80;;;0.70;;
19329;SDS011;9799;48.214;16.388;2023-03-14T14:21:54;1.90;;;0.93;;
19329;SDS011;9799;48.214;16.388;2023-03-14T14:25:17;1.30;;;0.90;;
19329;SDS011;9799;48.214;16.388;2023-03-14T14:28:39;1.47;;;1.00;;
19329;SDS011;9799;48.214;16.388;2023-03-14T14:32:01;2.00;;;0.90;;
19329;SDS011;9799;48.214;16.388;2023-03-14T14:35:24;1.43;;;1.07;;
19329;SDS011;9799;48.214;16.388;2023-03-14T14:38:59;1.60;;;0.90;;
19329;SDS011;9799;48.214;16.388;2023-03-14T14:42:26;1.37;;;0.90;;
19329;SDS011;9799;48.214;16.388;2023-03-14T14:45:50;1.40;;;0.70;;
19329;SDS011;9799;48.214;16.388;2023-03-14T14:49:13;3.37;;;1.10;;
19329;SDS011;9799;48.214;16.388;2023-03-14T14:52:46;1.60;;;1.00;;
19329;SDS011;9799;48.214;16.388;2023-03-14T14:56:14;1.33;;;0.93;;
19329;SDS011;9799;48.214;16.388;2023-03-14T14:59:42;1.00;;;0.90;;
19329;SDS011;9799;48.214;16.388;2023-03-14T15:03:04;1.77;;;1.00;;
19329;SDS011;9799;48.214;16.388;2023-03-14T15:06:26;1.83;;;1.30;;
19329;SDS011;9799;48.214;16.388;2023-03-14T15:09:50;1.27;;;0.90;;
19329;SDS011;9799;48.214;16.388;2023-03-14T15:13:11;2.07;;;1.57;;
19329;SDS011;9799;48.214;16.388;2023-03-14T15:16:34;1.93;;;1.10;;
19329;SDS011;9799;48.214;16.388;2023-03-14T15:19:56;2.97;;;1.77;;
19329;SDS011;9799;48.214;16.388;2023-03-14T15:23:18;0.97;;;0.80;;
19329;SDS011;9799;48.214;16.388;2023-03-14T15:26:40;1.10;;;1.00;;
19329;SDS011;9799;48.214;16.388;2023-03-14T15:30:03;1.37;;;1.20;;
19329;SDS011;9799;48.214;16.388;2023-03-14T15:33:27;4.00;;;1.60;;
19329;SDS011;9799;48.214;16.388;2023-03-14T15:36:48;4.13;;;3.60;;
19329;SDS011;9799;48.214;16.388;2023-03-14T15:40:10;2.70;;;2.10;;
19329;SDS011;9799;48.214;16.388;2023-03-14T15:43:33;6.47;;;2.63;;
19329;SDS011;9799;48.214;16.388;2023-03-14T15:46:54;2.70;;;2.17;;
19329;SDS011;9799;48.214;16.388;2023-03-14T15:50:17;3.17;;;2.13;;
19329;SDS011;9799;48.214;16.388;2023-03-14T15:53:38;4.67;;;2.17;;
19329;SDS011;9799;48.214;16.388;2023-03-14T15:57:00;3.93;;;2.23;;
19329;SDS011;9799;48.214;16.388;2023-03-14T16:00:21;5.13;;;2.80;;
19329;SDS011;9799;48.214;16.388;2023-03-14T16:03:44;3.40;;;2.60;;
19329;SDS011;9799;48.214;16.388;2023-03-14T16:07:07;2.53;;;2.10;;
19329;SDS011;9799;48.214;16.388;2023-03-14T16:10:28;2.43;;;1.83;;
19329;SDS011;9799;48.214;16.388;2023-03-14T16:13:49;4.37;;;2.37;;
19329;SDS011;9799;48.214;16.388;2023-03-14T16:17:11;3.07;;;2.13;;
19329;SDS011;9799;48.214;16.388;2023-03-14T16:20:33;7.13;;;1.97;;
19329;SDS011;9799;48.214;16.388;2023-03-14T16:23:55;4.47;;;1.90;;
19329;SDS011;9799;48.214;16.388;2023-03-14T16:27:17;2.93;;;2.00;;
19329;SDS011;9799;48.214;16.388;2023-03-14T16:30:38;3.87;;;2.50;;
19329;SDS011;9799;48.214;16.388;2023-03-14T16:34:00;2.97;;;2.17;;
19329;SDS011;9799;48.214;16.388;2023-03-14T16:37:23;5.70;;;2.77;;
19329;SDS011;9799;48.214;16.388;2023-03-14T16:40:55;4.70;;;2.77;;
19329;SDS011;9799;48.214;16.388;2023-03-14T16:44:18;7.43;;;4.27;;
19329;SDS011;9799;48.214;16.388;2023-03-14T16:47:40;5.37;;;4.07;;
19329;SDS011;9799;48.214;16.388;2023-03-14T16:51:01;4.93;;;3.50;;
19329;SDS011;9799;48.214;16.388;2023-03-14T16:54:23;6.93;;;3.67;;
19329;SDS011;9799;48.214;16.388;2023-03-14T16:57:46;8.33;;;3.20;;
19329;SDS011;9799;48.214;16.388;2023-03-14T17:01:09;4.43;;;3.03;;
19329;SDS011;9799;48.214;16.388;2023-03-14T17:04:32;6.00;;;2.87;;
19329;SDS011;9799;48.214;16.388;2023-03-14T17:07:54;6.40;;;3.10;;
19329;SDS011;9799;48.214;16.388;2023-03-14T17:11:15;10.23;;;3.67;;
19329;SDS011;9799;48.214;16.388;2023-03-14T17:14:38;5.40;;;3.23;;
19329;SDS011;9799;48.214;16.388;2023-03-14T17:18:00;8.50;;;5.57;;
19329;SDS011;9799;48.214;16.388;2023-03-14T17:21:22;4.97;;;3.70;;
19329;SDS011;9799;48.214;16.388;2023-03-14T17:24:44;3.57;;;3.07;;
19329;SDS011;9799;48.214;16.388;2023-03-14T17:28:06;4.13;;;2.60;;
19329;SDS011;9799;48.214;16.388;2023-03-14T17:31:32;4.20;;;2.50;;
19329;SDS011;9799;48.214;16.388;2023-03-14T17:34:53;5.47;;;2.97;;
19329;SDS011;9799;48.214;16.388;2023-03-14T17:38:15;4.60;;;3.57;;
19329;SDS011;9799;48.214;16.388;2023-03-14T17:41:37;5.90;;;2.40;;
19329;SDS011;9799;48.214;16.388;2023-03-14T17:44:58;9.23;;;7.00;;
19329;SDS011;9799;48.214;16.388;2023-03-14T17:48:21;7.67;;;5.97;;
19329;SDS011;9799;48.214;16.388;2023-03-14T17:51:44;7.93;;;4.60;;
19329;SDS011;9799;48.214;16.388;2023-03-14T17:55:07;6.27;;;4.30;;
19329;SDS011;9799;48.214;16.388;2023-03-14T17:58:30;4.90;;;3.63;;
19329;SDS011;9799;48.214;16.388;2023-03-14T18:01:55;9.03;;;6.53;;
19329;SDS011;9799;48.214;16.388;2023-03-14T18:05:18;7.50;;;5.90;;
19329;SDS011;9799;48.214;16.388;2023-03-14T18:08:44;4.93;;;3.97;;
19329;SDS011;9799;48.214;16.388;2023-03-14T18:12:07;7.93;;;5.20;;
19329;SDS011;9799;48.214;16.388;2023-03-14T18:15:29;10.17;;;7.07;;
19329;SDS011;9799;48.214;16.388;2023-03-14T18:18:52;10.50;;;7.13;;
19329;SDS011;9799;48.214;16.388;2023-03-14T18:22:17;12.23;;;7.50;;
19329;SDS011;9799;48.214;16.388;2023-03-14T18:25:40;10.83;;;7.80;;
19329;SDS011;9799;48.214;16.388;2023-03-14T18:29:01;16.10;;;9.77;;
19329;SDS011;9799;48.214;16.388;2023-03-14T18:32:23;13.30;;;6.73;;
19329;SDS011;9799;48.214;16.388;2023-03-14T18:35:46;11.27;;;5.63;;
19329;SDS011;9799;48.214;16.388;2023-03-14T18:39:11;13.67;;;6.73;;
19329;SDS011;9799;48.214;16.388;2023-03-14T18:42:33;17.43;;;7.27;;
19329;SDS011;9799;48.214;16.388;2023-03-14T18:45:56;7.10;;;5.37;;
19329;SDS011;9799;48.214;16.388;2023-03-14T18:49:19;5.13;;;3.83;;
19329;SDS011;9799;48.214;16.388;2023-03-14T18:52:42;5.47;;;3.60;;
19329;SDS011;9799;48.214;16.388;2023-03-14T18:56:06;4.77;;;3.57;;
19329;SDS011;9799;48.214;16.388;2023-03-14T18:59:30;3.13;;;1.40;;
19329;SDS011;9799;48.214;16.388;2023-03-14T19:02:52;2.00;;;1.17;;
19329;SDS011;9799;48.214;16.388;2023-03-14T19:06:14;1.37;;;0.90;;
19329;SDS011;9799;48.214;16.388;2023-03-14T19:09:38;1.50;;;1.20;;
19329;SDS011;9799;48.214;16.388;2023-03-14T19:13:04;0.80;;;0.80;;
19329;SDS011;9799;48.214;16.388;2023-03-14T19:16:26;0.60;;;0.60;;
19329;SDS011;9799;48.214;16.388;2023-03-14T19:19:49;0.83;;;0.83;;
19329;SDS011;9799;48.214;16.388;2023-03-14T19:23:12;0.60;;;0.60;;
19329;SDS011;9799;48.214;16.388;2023-03-14T19:26:37;1.63;;;0.80;;
19329;SDS011;9799;48.214;16.388;2023-03-14T19:30:00;0.97;;;0.87;;
19329;SDS011;9799;48.214;16.388;2023-03-14T19:33:23;1.27;;;1.10;;
19329;SDS011;9799;48.214;16.388;2023-03-14T19:36:46;1.53;;;0.87;;
19329;SDS011;9799;48.214;16.388;2023-03-14T19:40:10;1.43;;;1.00;;
19329;SDS011;9799;48.214;16.388;2023-03-14T19:43:33;1.20;;;0.80;;
19329;SDS011;9799;48.214;16.388;2023-03-14T19:46:57;1.83;;;0.70;;
19329;SDS011;9799;48.214;16.388;2023-03-14T19:50:20;3.83;;;0.80;;
19329;SDS011;9799;48.214;16.388;2023-03-14T19:53:44;1.00;;;0.90;;
19329;SDS011;9799;48.214;16.388;2023-03-14T19:57:06;0.93;;;0.80;;
19329;SDS011;9799;48.214;16.388;2023-03-14T20:00:29;3.13;;;1.27;;
19329;SDS011;9799;48.214;16.388;2023-03-14T20:03:54;1.43;;;1.10;;
19329;SDS011;9799;48.214;16.388;2023-03-14T20:07:17;2.70;;;0.97;;
19329;SDS011;9799;48.214;16.388;2023-03-14T20:10:40;1.23;;;0.77;;
19329;SDS011;9799;48.214;16.388;2023-03-14T20:14:04;2.27;;;1.70;;
19329;SDS011;9799;48.214;16.388;2023-03-14T20:17:28;1.37;;;1.13;;
19329;SDS011;9799;48.214;16.388;2023-03-14T20:20:54;1.50;;;1.40;;
19329;SDS011;9799;48.214;16.388;2023-03-14T20:24:16;1.77;;;1.43;;
19329;SDS011;9799;48.214;16.388;2023-03-14T20:27:39;2.83;;;1.70;;
19329;SDS011;9799;48.214;16.388;2023-03-14T20:31:04;2.73;;;1.53;;
19329;SDS011;9799;48.214;16.388;2023-03-14T20:34:28;1.77;;;1.17;;
19329;SDS011;9799;48.214;16.388;2023-03-14T20:37:55;2.00;;;1.03;;